sensor_id;sensor_type;location;lat;lon;timestamp;temperature;humidity
13591;DHT22;6866;50.778;7.206;2023-04-24T00:00:03;13.30;95.80
13591;DHT22;6866;50.778;7.206;2023-04-24T00:02:34;13.30;95.50
13591;DHT22;6866;50.778;7.206;2023-04-24T00:05:03;13.40;95.80
13591;DHT22;6866;50.778;7.206;2023-04-24T00:07:29;13.30;96.00
13591;DHT22;6866;50.778;7.206;2023-04-24T00:09:55;13.30;95.50
13591;DHT22;6866;50.778;7.206;2023-04-24T00:12:21;13.40;96.00
13591;DHT22;6866;50.778;7.206;2023-04-24T00:14:46;13.30;96.20
13591;DHT22;6866;50.778;7.206;2023-04-24T00:17:12;13.30;95.80
13591;DHT22;6866;50.778;7.206;2023-04-24T00:19:38;13.30;96.00
13591;DHT22;6866;50.778;7.206;2023-04-24T00:22:04;13.20;96.00
13591;DHT22;6866;50.778;7.206;2023-04-24T00:24:29;13.30;96.00
13591;DHT22;6866;50.778;7.206;2023-04-24T00:26:55;13.30;95.80
13591;DHT22;6866;50.778;7.206;2023-04-24T00:29:20;13.20;95.80
13591;DHT22;6866;50.778;7.206;2023-04-24T00:31:46;13.20;96.40
13591;DHT22;6866;50.778;7.206;2023-04-24T00:34:11;13.20;96.10
13591;DHT22;6866;50.778;7.206;2023-04-24T00:36:37;13.20;95.70
13591;DHT22;6866;50.778;7.206;2023-04-24T00:39:03;13.30;96.00
13591;DHT22;6866;50.778;7.206;2023-04-24T00:41:29;13.30;95.90
13591;DHT22;6866;50.778;7.206;2023-04-24T00:43:55;13.30;95.80
13591;DHT22;6866;50.778;7.206;2023-04-24T00:46:21;13.20;95.70
13591;DHT22;6866;50.778;7.206;2023-04-24T00:48:47;13.30;96.10
13591;DHT22;6866;50.778;7.206;2023-04-24T00:51:12;13.30;96.30
13591;DHT22;6866;50.778;7.206;2023-04-24T00:53:38;13.30;96.00
13591;DHT22;6866;50.778;7.206;2023-04-24T00:56:04;13.30;96.40
13591;DHT22;6866;50.778;7.206;2023-04-24T00:58:30;13.30;95.90
13591;DHT22;6866;50.778;7.206;2023-04-24T01:03:33;13.30;96.10
13591;DHT22;6866;50.778;7.206;2023-04-24T01:05:58;13.30;96.30
13591;DHT22;6866;50.778;7.206;2023-04-24T01:08:25;13.30;96.40
13591;DHT22;6866;50.778;7.206;2023-04-24T01:10:52;13.30;96.30
13591;DHT22;6866;50.778;7.206;2023-04-24T01:13:18;13.30;96.50
13591;DHT22;6866;50.778;7.206;2023-04-24T01:15:45;13.30;96.60
13591;DHT22;6866;50.778;7.206;2023-04-24T01:18:10;13.30;97.00
13591;DHT22;6866;50.778;7.206;2023-04-24T01:20:37;13.20;97.30
13591;DHT22;6866;50.778;7.206;2023-04-24T01:23:08;13.20;97.20
13591;DHT22;6866;50.778;7.206;2023-04-24T01:25:34;13.20;97.20
13591;DHT22;6866;50.778;7.206;2023-04-24T01:28:00;13.20;97.50
13591;DHT22;6866;50.778;7.206;2023-04-24T01:30:27;13.20;97.10
13591;DHT22;6866;50.778;7.206;2023-04-24T01:32:53;13.20;97.50
13591;DHT22;6866;50.778;7.206;2023-04-24T01:35:19;13.30;97.20
13591;DHT22;6866;50.778;7.206;2023-04-24T01:37:45;13.20;97.90
13591;DHT22;6866;50.778;7.206;2023-04-24T01:40:11;13.20;98.00
13591;DHT22;6866;50.778;7.206;2023-04-24T01:42:37;13.20;98.90
13591;DHT22;6866;50.778;7.206;2023-04-24T01:45:04;12.90;98.80
13591;DHT22;6866;50.778;7.206;2023-04-24T01:47:30;12.80;98.00
13591;DHT22;6866;50.778;7.206;2023-04-24T01:49:56;12.80;97.30
13591;DHT22;6866;50.778;7.206;2023-04-24T01:52:22;12.80;97.20
13591;DHT22;6866;50.778;7.206;2023-04-24T01:54:48;12.80;97.20
13591;DHT22;6866;50.778;7.206;2023-04-24T01:57:14;12.80;96.60
13591;DHT22;6866;50.778;7.206;2023-04-24T01:59:40;12.70;94.80
13591;DHT22;6866;50.778;7.206;2023-04-24T02:02:05;12.80;93.50
13591;DHT22;6866;50.778;7.206;2023-04-24T02:04:31;12.70;92.50
13591;DHT22;6866;50.778;7.206;2023-04-24T02:06:57;12.70;92.30
13591;DHT22;6866;50.778;7.206;2023-04-24T02:09:22;12.80;92.10
13591;DHT22;6866;50.778;7.206;2023-04-24T02:11:48;12.70;90.90
13591;DHT22;6866;50.778;7.206;2023-04-24T02:14:13;12.70;91.00
13591;DHT22;6866;50.778;7.206;2023-04-24T02:16:39;12.70;89.30
13591;DHT22;6866;50.778;7.206;2023-04-24T02:19:05;12.70;89.30
13591;DHT22;6866;50.778;7.206;2023-04-24T02:21:30;12.60;88.80
13591;DHT22;6866;50.778;7.206;2023-04-24T02:23:56;12.60;89.30
13591;DHT22;6866;50.778;7.206;2023-04-24T02:26:22;12.60;90.30
13591;DHT22;6866;50.778;7.206;2023-04-24T02:28:47;12.60;90.50
13591;DHT22;6866;50.778;7.206;2023-04-24T02:31:14;12.50;90.70
13591;DHT22;6866;50.778;7.206;2023-04-24T02:33:39;12.30;90.70
13591;DHT22;6866;50.778;7.206;2023-04-24T02:36:05;12.20;90.90
13591;DHT22;6866;50.778;7.206;2023-04-24T02:38:31;12.20;88.70
13591;DHT22;6866;50.778;7.206;2023-04-24T02:40:56;12.10;87.20
13591;DHT22;6866;50.778;7.206;2023-04-24T02:43:22;12.10;86.30
13591;DHT22;6866;50.778;7.206;2023-04-24T02:45:47;12.00;86.20
13591;DHT22;6866;50.778;7.206;2023-04-24T02:48:13;12.00;85.70
13591;DHT22;6866;50.778;7.206;2023-04-24T02:50:38;11.80;86.10
13591;DHT22;6866;50.778;7.206;2023-04-24T02:53:04;11.80;85.80
13591;DHT22;6866;50.778;7.206;2023-04-24T02:55:30;11.60;86.40
13591;DHT22;6866;50.778;7.206;2023-04-24T02:57:55;11.40;88.10
13591;DHT22;6866;50.778;7.206;2023-04-24T03:00:21;11.50;88.20
13591;DHT22;6866;50.778;7.206;2023-04-24T03:02:47;11.60;89.40
13591;DHT22;6866;50.778;7.206;2023-04-24T03:05:12;11.50;89.60
13591;DHT22;6866;50.778;7.206;2023-04-24T03:07:38;11.40;90.40
13591;DHT22;6866;50.778;7.206;2023-04-24T03:10:04;11.40;90.20
13591;DHT22;6866;50.778;7.206;2023-04-24T03:12:31;11.40;90.70
13591;DHT22;6866;50.778;7.206;2023-04-24T03:14:56;11.40;90.50
13591;DHT22;6866;50.778;7.206;2023-04-24T03:17:22;11.30;91.10
13591;DHT22;6866;50.778;7.206;2023-04-24T03:19:47;11.40;91.00
13591;DHT22;6866;50.778;7.206;2023-04-24T03:22:13;11.40;91.30
13591;DHT22;6866;50.778;7.206;2023-04-24T03:24:39;11.30;90.70
13591;DHT22;6866;50.778;7.206;2023-04-24T03:27:05;11.30;90.80
13591;DHT22;6866;50.778;7.206;2023-04-24T03:29:30;11.20;91.10
13591;DHT22;6866;50.778;7.206;2023-04-24T03:31:56;11.30;90.20
13591;DHT22;6866;50.778;7.206;2023-04-24T03:34:22;11.10;90.10
13591;DHT22;6866;50.778;7.206;2023-04-24T03:36:47;11.20;90.30
13591;DHT22;6866;50.778;7.206;2023-04-24T03:39:13;11.20;89.80
13591;DHT22;6866;50.778;7.206;2023-04-24T03:41:38;11.20;90.30
13591;DHT22;6866;50.778;7.206;2023-04-24T03:44:04;11.10;88.70
13591;DHT22;6866;50.778;7.206;2023-04-24T03:46:29;11.10;89.40
13591;DHT22;6866;50.778;7.206;2023-04-24T03:48:55;11.10;89.80
13591;DHT22;6866;50.778;7.206;2023-04-24T03:51:20;11.10;89.80
13591;DHT22;6866;50.778;7.206;2023-04-24T03:53:47;11.10;88.70
13591;DHT22;6866;50.778;7.206;2023-04-24T03:56:12;11.00;89.60
13591;DHT22;6866;50.778;7.206;2023-04-24T03:58:38;11.10;89.10
13591;DHT22;6866;50.778;7.206;2023-04-24T04:01:03;11.10;89.00
13591;DHT22;6866;50.778;7.206;2023-04-24T04:03:29;11.10;89.90
13591;DHT22;6866;50.778;7.206;2023-04-24T04:05:55;11.10;89.30
13591;DHT22;6866;50.778;7.206;2023-04-24T04:08:20;10.90;90.00
13591;DHT22;6866;50.778;7.206;2023-04-24T04:10:46;10.90;90.50
13591;DHT22;6866;50.778;7.206;2023-04-24T04:13:11;10.90;90.50
13591;DHT22;6866;50.778;7.206;2023-04-24T04:15:37;10.80;90.70
13591;DHT22;6866;50.778;7.206;2023-04-24T04:18:03;10.70;90.70
13591;DHT22;6866;50.778;7.206;2023-04-24T04:20:28;10.80;91.50
13591;DHT22;6866;50.778;7.206;2023-04-24T04:22:54;10.80;91.10
13591;DHT22;6866;50.778;7.206;2023-04-24T04:25:19;10.90;91.00
13591;DHT22;6866;50.778;7.206;2023-04-24T04:27:46;11.00;90.70
13591;DHT22;6866;50.778;7.206;2023-04-24T04:30:13;10.90;90.80
13591;DHT22;6866;50.778;7.206;2023-04-24T04:32:39;10.90;91.00
13591;DHT22;6866;50.778;7.206;2023-04-24T04:35:05;10.80;90.90
13591;DHT22;6866;50.778;7.206;2023-04-24T04:37:31;11.00;90.90
13591;DHT22;6866;50.778;7.206;2023-04-24T04:39:58;11.00;91.00
13591;DHT22;6866;50.778;7.206;2023-04-24T04:42:25;11.00;91.20
13591;DHT22;6866;50.778;7.206;2023-04-24T04:44:50;10.90;90.40
13591;DHT22;6866;50.778;7.206;2023-04-24T04:47:16;11.10;90.80
13591;DHT22;6866;50.778;7.206;2023-04-24T04:49:43;11.20;89.70
13591;DHT22;6866;50.778;7.206;2023-04-24T04:52:09;11.10;89.70
13591;DHT22;6866;50.778;7.206;2023-04-24T04:54:34;10.90;90.40
13591;DHT22;6866;50.778;7.206;2023-04-24T04:57:00;11.00;91.00
13591;DHT22;6866;50.778;7.206;2023-04-24T04:59:26;11.00;92.00
13591;DHT22;6866;50.778;7.206;2023-04-24T05:01:52;11.00;90.60
13591;DHT22;6866;50.778;7.206;2023-04-24T05:04:17;11.00;91.20
13591;DHT22;6866;50.778;7.206;2023-04-24T05:06:43;11.10;91.60
13591;DHT22;6866;50.778;7.206;2023-04-24T05:09:09;11.00;91.10
13591;DHT22;6866;50.778;7.206;2023-04-24T05:11:35;11.10;91.50
13591;DHT22;6866;50.778;7.206;2023-04-24T05:14:00;11.10;91.10
13591;DHT22;6866;50.778;7.206;2023-04-24T05:16:26;11.10;91.10
13591;DHT22;6866;50.778;7.206;2023-04-24T05:18:51;11.00;90.80
13591;DHT22;6866;50.778;7.206;2023-04-24T05:21:17;11.00;90.70
13591;DHT22;6866;50.778;7.206;2023-04-24T05:23:43;11.20;91.10
13591;DHT22;6866;50.778;7.206;2023-04-24T05:26:08;11.10;90.10
13591;DHT22;6866;50.778;7.206;2023-04-24T05:28:34;11.10;91.10
13591;DHT22;6866;50.778;7.206;2023-04-24T05:31:02;11.20;91.80
13591;DHT22;6866;50.778;7.206;2023-04-24T05:33:27;11.20;91.50
13591;DHT22;6866;50.778;7.206;2023-04-24T05:35:53;11.20;92.10
13591;DHT22;6866;50.778;7.206;2023-04-24T05:38:19;11.20;91.80
13591;DHT22;6866;50.778;7.206;2023-04-24T05:40:45;11.20;91.10
13591;DHT22;6866;50.778;7.206;2023-04-24T05:43:11;11.00;91.50
13591;DHT22;6866;50.778;7.206;2023-04-24T05:45:38;11.00;92.00
13591;DHT22;6866;50.778;7.206;2023-04-24T05:48:04;11.10;91.90
13591;DHT22;6866;50.778;7.206;2023-04-24T05:50:29;11.10;92.10
13591;DHT22;6866;50.778;7.206;2023-04-24T05:52:55;11.20;92.20
13591;DHT22;6866;50.778;7.206;2023-04-24T05:55:23;11.20;92.30
13591;DHT22;6866;50.778;7.206;2023-04-24T05:57:49;11.30;91.90
13591;DHT22;6866;50.778;7.206;2023-04-24T06:00:15;11.20;91.40
13591;DHT22;6866;50.778;7.206;2023-04-24T06:02:41;11.10;91.50
13591;DHT22;6866;50.778;7.206;2023-04-24T06:05:07;11.10;91.80
13591;DHT22;6866;50.778;7.206;2023-04-24T06:07:33;11.10;91.90
13591;DHT22;6866;50.778;7.206;2023-04-24T06:09:59;11.10;91.80
13591;DHT22;6866;50.778;7.206;2023-04-24T06:12:25;11.00;91.90
13591;DHT22;6866;50.778;7.206;2023-04-24T06:14:51;11.10;92.40
13591;DHT22;6866;50.778;7.206;2023-04-24T06:17:17;11.10;91.90
13591;DHT22;6866;50.778;7.206;2023-04-24T06:19:43;11.10;92.50
13591;DHT22;6866;50.778;7.206;2023-04-24T06:22:08;11.10;92.80
13591;DHT22;6866;50.778;7.206;2023-04-24T06:24:34;11.10;93.10
13591;DHT22;6866;50.778;7.206;2023-04-24T06:27:00;11.10;94.00
13591;DHT22;6866;50.778;7.206;2023-04-24T06:29:27;11.10;93.70
13591;DHT22;6866;50.778;7.206;2023-04-24T06:31:52;11.20;95.30
13591;DHT22;6866;50.778;7.206;2023-04-24T06:34:18;11.10;94.70
13591;DHT22;6866;50.778;7.206;2023-04-24T06:36:43;11.20;95.10
13591;DHT22;6866;50.778;7.206;2023-04-24T06:39:09;11.40;96.70
13591;DHT22;6866;50.778;7.206;2023-04-24T06:41:35;11.30;96.60
13591;DHT22;6866;50.778;7.206;2023-04-24T06:44:01;11.40;98.20
13591;DHT22;6866;50.778;7.206;2023-04-24T06:46:26;11.30;98.50
13591;DHT22;6866;50.778;7.206;2023-04-24T06:48:53;11.20;99.90
13591;DHT22;6866;50.778;7.206;2023-04-24T06:51:25;11.30;99.90
13591;DHT22;6866;50.778;7.206;2023-04-24T06:53:54;11.30;99.90
13591;DHT22;6866;50.778;7.206;2023-04-24T06:56:21;11.30;99.80
13591;DHT22;6866;50.778;7.206;2023-04-24T06:58:47;11.20;99.90
13591;DHT22;6866;50.778;7.206;2023-04-24T07:01:13;11.10;99.90
13591;DHT22;6866;50.778;7.206;2023-04-24T07:03:39;11.10;99.90
13591;DHT22;6866;50.778;7.206;2023-04-24T07:06:05;11.00;99.90
13591;DHT22;6866;50.778;7.206;2023-04-24T07:08:30;11.00;99.90
13591;DHT22;6866;50.778;7.206;2023-04-24T07:10:56;11.00;99.90
13591;DHT22;6866;50.778;7.206;2023-04-24T07:13:22;11.00;99.90
13591;DHT22;6866;50.778;7.206;2023-04-24T07:15:48;11.00;99.90
13591;DHT22;6866;50.778;7.206;2023-04-24T07:18:16;11.00;99.90
13591;DHT22;6866;50.778;7.206;2023-04-24T07:20:42;11.00;99.90
13591;DHT22;6866;50.778;7.206;2023-04-24T07:23:07;10.90;99.90
13591;DHT22;6866;50.778;7.206;2023-04-24T07:25:33;11.10;99.90
13591;DHT22;6866;50.778;7.206;2023-04-24T07:27:59;11.00;99.90
13591;DHT22;6866;50.778;7.206;2023-04-24T07:30:24;10.90;99.90
13591;DHT22;6866;50.778;7.206;2023-04-24T07:32:50;10.80;99.90
13591;DHT22;6866;50.778;7.206;2023-04-24T07:35:16;10.90;99.90
13591;DHT22;6866;50.778;7.206;2023-04-24T07:37:41;11.00;99.90
13591;DHT22;6866;50.778;7.206;2023-04-24T07:40:12;10.90;99.90
13591;DHT22;6866;50.778;7.206;2023-04-24T07:42:38;10.80;99.90
13591;DHT22;6866;50.778;7.206;2023-04-24T07:45:04;10.90;99.90
13591;DHT22;6866;50.778;7.206;2023-04-24T07:47:30;10.90;99.90
13591;DHT22;6866;50.778;7.206;2023-04-24T07:49:55;10.90;99.90
13591;DHT22;6866;50.778;7.206;2023-04-24T07:52:21;11.00;99.90
13591;DHT22;6866;50.778;7.206;2023-04-24T07:54:47;10.90;99.90
13591;DHT22;6866;50.778;7.206;2023-04-24T07:57:12;10.80;99.90
13591;DHT22;6866;50.778;7.206;2023-04-24T07:59:39;10.80;99.90
13591;DHT22;6866;50.778;7.206;2023-04-24T08:02:04;10.80;99.90
13591;DHT22;6866;50.778;7.206;2023-04-24T08:04:31;10.80;99.90
13591;DHT22;6866;50.778;7.206;2023-04-24T08:06:57;10.60;99.90
13591;DHT22;6866;50.778;7.206;2023-04-24T08:09:22;10.80;99.90
13591;DHT22;6866;50.778;7.206;2023-04-24T08:11:48;10.90;99.90
13591;DHT22;6866;50.778;7.206;2023-04-24T08:14:14;10.80;99.90
13591;DHT22;6866;50.778;7.206;2023-04-24T08:16:40;10.80;99.90
13591;DHT22;6866;50.778;7.206;2023-04-24T08:19:06;10.60;99.90
13591;DHT22;6866;50.778;7.206;2023-04-24T08:21:32;10.60;99.90
13591;DHT22;6866;50.778;7.206;2023-04-24T08:23:57;10.60;99.90
13591;DHT22;6866;50.778;7.206;2023-04-24T08:26:23;10.40;99.90
13591;DHT22;6866;50.778;7.206;2023-04-24T08:28:48;10.40;99.90
13591;DHT22;6866;50.778;7.206;2023-04-24T08:31:14;10.30;99.90
13591;DHT22;6866;50.778;7.206;2023-04-24T08:33:40;10.40;99.90
13591;DHT22;6866;50.778;7.206;2023-04-24T08:36:06;10.40;99.90
13591;DHT22;6866;50.778;7.206;2023-04-24T08:38:33;10.40;99.90
13591;DHT22;6866;50.778;7.206;2023-04-24T08:41:00;10.30;99.90
13591;DHT22;6866;50.778;7.206;2023-04-24T08:43:27;10.30;99.90
13591;DHT22;6866;50.778;7.206;2023-04-24T08:45:55;10.30;99.90
13591;DHT22;6866;50.778;7.206;2023-04-24T08:48:22;10.30;99.90
13591;DHT22;6866;50.778;7.206;2023-04-24T08:50:49;10.30;99.90
13591;DHT22;6866;50.778;7.206;2023-04-24T08:53:15;10.10;99.90
13591;DHT22;6866;50.778;7.206;2023-04-24T08:55:43;10.00;99.90
13591;DHT22;6866;50.778;7.206;2023-04-24T08:58:11;10.00;99.90
13591;DHT22;6866;50.778;7.206;2023-04-24T09:00:39;9.80;99.90
13591;DHT22;6866;50.778;7.206;2023-04-24T09:03:05;9.80;99.90
13591;DHT22;6866;50.778;7.206;2023-04-24T09:05:32;9.90;99.90
13591;DHT22;6866;50.778;7.206;2023-04-24T09:07:59;9.90;99.90
13591;DHT22;6866;50.778;7.206;2023-04-24T09:10:27;9.70;99.90
13591;DHT22;6866;50.778;7.206;2023-04-24T09:12:56;9.70;99.90
13591;DHT22;6866;50.778;7.206;2023-04-24T09:15:24;9.90;99.90
13591;DHT22;6866;50.778;7.206;2023-04-24T09:17:50;9.90;99.90
13591;DHT22;6866;50.778;7.206;2023-04-24T09:20:15;9.90;99.90
13591;DHT22;6866;50.778;7.206;2023-04-24T09:22:42;9.80;99.90
13591;DHT22;6866;50.778;7.206;2023-04-24T09:25:09;10.00;99.90
13591;DHT22;6866;50.778;7.206;2023-04-24T09:27:41;9.90;99.90
13591;DHT22;6866;50.778;7.206;2023-04-24T09:30:08;9.80;99.90
13591;DHT22;6866;50.778;7.206;2023-04-24T09:32:33;9.80;99.90
13591;DHT22;6866;50.778;7.206;2023-04-24T09:35:07;9.90;99.90
13591;DHT22;6866;50.778;7.206;2023-04-24T09:37:38;9.80;99.90
13591;DHT22;6866;50.778;7.206;2023-04-24T09:42:44;10.00;99.90
13591;DHT22;6866;50.778;7.206;2023-04-24T09:45:10;10.00;99.90
13591;DHT22;6866;50.778;7.206;2023-04-24T09:47:39;10.20;99.90
13591;DHT22;6866;50.778;7.206;2023-04-24T09:50:14;10.30;99.90
13591;DHT22;6866;50.778;7.206;2023-04-24T09:52:44;10.30;99.90
13591;DHT22;6866;50.778;7.206;2023-04-24T09:55:19;10.30;99.90
13591;DHT22;6866;50.778;7.206;2023-04-24T09:58:02;10.40;99.90
13591;DHT22;6866;50.778;7.206;2023-04-24T10:00:32;10.40;99.90
13591;DHT22;6866;50.778;7.206;2023-04-24T10:03:02;10.40;99.90
13591;DHT22;6866;50.778;7.206;2023-04-24T10:05:33;10.40;99.90
13591;DHT22;6866;50.778;7.206;2023-04-24T10:08:04;10.40;99.90
13591;DHT22;6866;50.778;7.206;2023-04-24T10:10:32;10.40;99.90
13591;DHT22;6866;50.778;7.206;2023-04-24T10:12:59;10.40;99.90
13591;DHT22;6866;50.778;7.206;2023-04-24T10:15:26;10.50;99.90
13591;DHT22;6866;50.778;7.206;2023-04-24T10:17:51;10.40;99.90
13591;DHT22;6866;50.778;7.206;2023-04-24T10:20:22;10.60;99.90
13591;DHT22;6866;50.778;7.206;2023-04-24T10:22:50;10.60;99.90
13591;DHT22;6866;50.778;7.206;2023-04-24T10:25:21;10.60;99.90
13591;DHT22;6866;50.778;7.206;2023-04-24T10:27:48;10.30;99.90
13591;DHT22;6866;50.778;7.206;2023-04-24T10:30:15;10.50;99.90
13591;DHT22;6866;50.778;7.206;2023-04-24T10:32:40;10.70;99.90
13591;DHT22;6866;50.778;7.206;2023-04-24T10:35:07;10.80;99.90
13591;DHT22;6866;50.778;7.206;2023-04-24T10:38:00;11.00;99.90
13591;DHT22;6866;50.778;7.206;2023-04-24T10:40:33;11.10;99.90
13591;DHT22;6866;50.778;7.206;2023-04-24T10:42:59;11.20;99.90
13591;DHT22;6866;50.778;7.206;2023-04-24T10:45:27;11.40;99.90
13591;DHT22;6866;50.778;7.206;2023-04-24T10:50:19;11.60;99.90
13591;DHT22;6866;50.778;7.206;2023-04-24T10:52:49;11.70;99.90
13591;DHT22;6866;50.778;7.206;2023-04-24T10:58:06;11.80;99.90
13591;DHT22;6866;50.778;7.206;2023-04-24T11:00:32;11.70;99.90
13591;DHT22;6866;50.778;7.206;2023-04-24T11:02:57;11.60;99.90
13591;DHT22;6866;50.778;7.206;2023-04-24T11:05:56;11.80;99.90
13591;DHT22;6866;50.778;7.206;2023-04-24T11:11:00;11.90;99.90
13591;DHT22;6866;50.778;7.206;2023-04-24T11:14:00;12.00;99.90
13591;DHT22;6866;50.778;7.206;2023-04-24T11:16:31;11.90;99.90
13591;DHT22;6866;50.778;7.206;2023-04-24T11:19:08;12.10;99.90
13591;DHT22;6866;50.778;7.206;2023-04-24T11:21:44;12.10;99.90
13591;DHT22;6866;50.778;7.206;2023-04-24T11:27:00;11.80;99.90
13591;DHT22;6866;50.778;7.206;2023-04-24T11:29:43;11.70;99.90
13591;DHT22;6866;50.778;7.206;2023-04-24T11:32:34;11.70;99.90
13591;DHT22;6866;50.778;7.206;2023-04-24T11:35:13;11.70;99.90
13591;DHT22;6866;50.778;7.206;2023-04-24T11:37:44;11.70;99.90
13591;DHT22;6866;50.778;7.206;2023-04-24T11:40:13;11.50;99.90
13591;DHT22;6866;50.778;7.206;2023-04-24T11:42:42;11.50;99.90
13591;DHT22;6866;50.778;7.206;2023-04-24T11:47:35;11.40;99.90
13591;DHT22;6866;50.778;7.206;2023-04-24T11:50:02;11.40;99.90
13591;DHT22;6866;50.778;7.206;2023-04-24T11:52:29;11.30;99.90
13591;DHT22;6866;50.778;7.206;2023-04-24T11:54:55;11.30;99.90
13591;DHT22;6866;50.778;7.206;2023-04-24T11:57:24;11.30;99.90
13591;DHT22;6866;50.778;7.206;2023-04-24T11:59:53;11.20;99.90
13591;DHT22;6866;50.778;7.206;2023-04-24T12:02:26;11.10;99.90
13591;DHT22;6866;50.778;7.206;2023-04-24T12:04:55;11.10;99.90
13591;DHT22;6866;50.778;7.206;2023-04-24T12:07:22;11.40;99.90
13591;DHT22;6866;50.778;7.206;2023-04-24T12:09:55;11.50;99.90
13591;DHT22;6866;50.778;7.206;2023-04-24T12:12:25;11.80;99.90
13591;DHT22;6866;50.778;7.206;2023-04-24T12:14:56;12.10;99.90
13591;DHT22;6866;50.778;7.206;2023-04-24T12:17:32;12.30;99.90
13591;DHT22;6866;50.778;7.206;2023-04-24T12:22:28;12.60;99.90
13591;DHT22;6866;50.778;7.206;2023-04-24T12:25:02;12.60;99.90
13591;DHT22;6866;50.778;7.206;2023-04-24T12:27:32;12.60;99.90
13591;DHT22;6866;50.778;7.206;2023-04-24T12:30:00;12.60;99.90
13591;DHT22;6866;50.778;7.206;2023-04-24T12:32:26;12.40;99.90
13591;DHT22;6866;50.778;7.206;2023-04-24T12:34:53;12.30;99.90
13591;DHT22;6866;50.778;7.206;2023-04-24T12:37:19;12.20;99.90
13591;DHT22;6866;50.778;7.206;2023-04-24T12:40:09;12.20;99.90
13591;DHT22;6866;50.778;7.206;2023-04-24T12:42:41;12.30;99.90
13591;DHT22;6866;50.778;7.206;2023-04-24T12:45:07;12.40;99.90
13591;DHT22;6866;50.778;7.206;2023-04-24T12:47:34;12.50;99.90
13591;DHT22;6866;50.778;7.206;2023-04-24T12:50:00;12.50;99.90
13591;DHT22;6866;50.778;7.206;2023-04-24T12:52:27;12.50;99.90
13591;DHT22;6866;50.778;7.206;2023-04-24T12:54:55;12.40;99.90
13591;DHT22;6866;50.778;7.206;2023-04-24T12:57:25;12.50;99.90
13591;DHT22;6866;50.778;7.206;2023-04-24T12:59:54;12.60;99.90
13591;DHT22;6866;50.778;7.206;2023-04-24T13:02:22;12.60;99.90
13591;DHT22;6866;50.778;7.206;2023-04-24T13:04:48;12.80;99.90
13591;DHT22;6866;50.778;7.206;2023-04-24T13:07:14;13.20;99.90
13591;DHT22;6866;50.778;7.206;2023-04-24T13:09:40;13.40;99.90
13591;DHT22;6866;50.778;7.206;2023-04-24T13:12:07;13.80;99.90
13591;DHT22;6866;50.778;7.206;2023-04-24T13:14:33;13.90;99.90
13591;DHT22;6866;50.778;7.206;2023-04-24T13:16:58;13.80;98.90
13591;DHT22;6866;50.778;7.206;2023-04-24T13:19:25;13.60;97.60
13591;DHT22;6866;50.778;7.206;2023-04-24T13:21:55;13.50;96.60
13591;DHT22;6866;50.778;7.206;2023-04-24T13:24:22;13.50;98.70
13591;DHT22;6866;50.778;7.206;2023-04-24T13:26:50;13.40;99.00
13591;DHT22;6866;50.778;7.206;2023-04-24T13:29:15;13.60;98.00
13591;DHT22;6866;50.778;7.206;2023-04-24T13:31:41;13.70;98.20
13591;DHT22;6866;50.778;7.206;2023-04-24T13:34:07;13.70;93.50
13591;DHT22;6866;50.778;7.206;2023-04-24T13:36:32;13.50;92.80
13591;DHT22;6866;50.778;7.206;2023-04-24T13:38:58;13.40;94.30
13591;DHT22;6866;50.778;7.206;2023-04-24T13:41:24;13.10;94.80
13591;DHT22;6866;50.778;7.206;2023-04-24T13:43:49;13.10;96.50
13591;DHT22;6866;50.778;7.206;2023-04-24T13:46:16;13.00;95.40
13591;DHT22;6866;50.778;7.206;2023-04-24T13:48:41;12.90;94.50
13591;DHT22;6866;50.778;7.206;2023-04-24T13:51:07;12.70;95.80
13591;DHT22;6866;50.778;7.206;2023-04-24T13:53:32;12.60;96.60
13591;DHT22;6866;50.778;7.206;2023-04-24T13:56:01;12.40;98.20
13591;DHT22;6866;50.778;7.206;2023-04-24T13:58:27;12.30;99.00
13591;DHT22;6866;50.778;7.206;2023-04-24T14:00:52;12.80;99.90
13591;DHT22;6866;50.778;7.206;2023-04-24T14:03:18;13.40;97.50
13591;DHT22;6866;50.778;7.206;2023-04-24T14:05:43;13.90;95.90
13591;DHT22;6866;50.778;7.206;2023-04-24T14:08:09;13.90;93.40
13591;DHT22;6866;50.778;7.206;2023-04-24T14:10:35;13.50;92.40
13591;DHT22;6866;50.778;7.206;2023-04-24T14:13:00;13.20;93.20
13591;DHT22;6866;50.778;7.206;2023-04-24T14:15:26;13.20;96.70
13591;DHT22;6866;50.778;7.206;2023-04-24T14:17:52;13.20;97.00
13591;DHT22;6866;50.778;7.206;2023-04-24T14:20:17;12.90;95.40
13591;DHT22;6866;50.778;7.206;2023-04-24T14:22:43;12.90;95.20
13591;DHT22;6866;50.778;7.206;2023-04-24T14:25:09;12.80;95.10
13591;DHT22;6866;50.778;7.206;2023-04-24T14:27:34;12.90;96.00
13591;DHT22;6866;50.778;7.206;2023-04-24T14:30:00;13.10;95.20
13591;DHT22;6866;50.778;7.206;2023-04-24T14:32:26;13.20;94.00
13591;DHT22;6866;50.778;7.206;2023-04-24T14:34:51;13.70;91.70
13591;DHT22;6866;50.778;7.206;2023-04-24T14:37:17;14.00;84.50
13591;DHT22;6866;50.778;7.206;2023-04-24T14:39:43;14.20;84.70
13591;DHT22;6866;50.778;7.206;2023-04-24T14:42:08;14.40;85.80
13591;DHT22;6866;50.778;7.206;2023-04-24T14:44:34;14.30;81.60
13591;DHT22;6866;50.778;7.206;2023-04-24T14:46:59;14.50;86.80
13591;DHT22;6866;50.778;7.206;2023-04-24T14:49:25;14.60;83.70
13591;DHT22;6866;50.778;7.206;2023-04-24T14:51:51;14.70;82.30
13591;DHT22;6866;50.778;7.206;2023-04-24T14:54:16;14.40;85.10
13591;DHT22;6866;50.778;7.206;2023-04-24T14:56:42;14.20;80.50
13591;DHT22;6866;50.778;7.206;2023-04-24T14:59:09;13.90;78.40
13591;DHT22;6866;50.778;7.206;2023-04-24T15:01:35;14.00;77.10
13591;DHT22;6866;50.778;7.206;2023-04-24T15:04:01;14.10;77.30
13591;DHT22;6866;50.778;7.206;2023-04-24T15:06:26;14.30;76.30
13591;DHT22;6866;50.778;7.206;2023-04-24T15:08:52;14.40;78.40
13591;DHT22;6866;50.778;7.206;2023-04-24T15:11:18;14.70;73.80
13591;DHT22;6866;50.778;7.206;2023-04-24T15:13:43;14.70;70.70
13591;DHT22;6866;50.778;7.206;2023-04-24T15:16:12;14.80;69.60
13591;DHT22;6866;50.778;7.206;2023-04-24T15:18:38;14.80;69.00
13591;DHT22;6866;50.778;7.206;2023-04-24T15:21:03;14.90;70.60
13591;DHT22;6866;50.778;7.206;2023-04-24T15:23:29;14.80;68.80
13591;DHT22;6866;50.778;7.206;2023-04-24T15:25:55;14.50;68.50
13591;DHT22;6866;50.778;7.206;2023-04-24T15:28:21;14.30;69.90
13591;DHT22;6866;50.778;7.206;2023-04-24T15:30:47;14.30;67.50
13591;DHT22;6866;50.778;7.206;2023-04-24T15:33:13;14.50;67.10
13591;DHT22;6866;50.778;7.206;2023-04-24T15:35:38;14.40;66.60
13591;DHT22;6866;50.778;7.206;2023-04-24T15:38:05;14.30;65.40
13591;DHT22;6866;50.778;7.206;2023-04-24T15:40:30;14.40;66.00
13591;DHT22;6866;50.778;7.206;2023-04-24T15:42:56;14.60;65.80
13591;DHT22;6866;50.778;7.206;2023-04-24T15:45:22;14.70;67.50
13591;DHT22;6866;50.778;7.206;2023-04-24T15:47:47;14.80;68.20
13591;DHT22;6866;50.778;7.206;2023-04-24T15:50:13;14.60;68.90
13591;DHT22;6866;50.778;7.206;2023-04-24T15:52:41;14.40;68.40
13591;DHT22;6866;50.778;7.206;2023-04-24T15:55:07;14.50;68.70
13591;DHT22;6866;50.778;7.206;2023-04-24T15:57:33;14.70;67.30
13591;DHT22;6866;50.778;7.206;2023-04-24T15:59:59;14.40;66.80
13591;DHT22;6866;50.778;7.206;2023-04-24T16:02:24;14.60;67.30
13591;DHT22;6866;50.778;7.206;2023-04-24T16:04:50;14.60;68.70